Time;durP1;ratioP1;P1;durP2;ratioP2;P2;SDS_P1;SDS_P2;PMS_P1;PMS_P2;Temp;Humidity;BMP_temperature;BMP_pressure;BME280_temperature;BME280_humidity;BME280_pressure;Samples;Min_cycle;Max_cycle;Signal;HPM_P1;HPM_P2
2022/01/03 00:01:35;;;;;;;25.33;5.05;;;10.60;86.70;;;;;;4945191;28;20039;-75
2022/01/03 00:04:00;;;;;;;31.27;5.25;;;10.60;87.00;;;;;;4945413;28;20036;-76
2022/01/03 00:06:26;;;;;;;26.15;5.63;;;10.60;87.00;;;;;;4984317;28;20045;-76
2022/01/03 00:08:52;;;;;;;30.35;6.05;;;10.60;86.90;;;;;;4984834;28;20089;-76
2022/01/03 00:11:20;;;;;;;31.17;5.13;;;10.60;87.00;;;;;;4985986;28;20042;-77
2022/01/03 00:13:48;;;;;;;36.70;6.30;;;10.50;87.20;;;;;;4968041;28;20227;-76
2022/01/03 00:16:15;;;;;;;22.85;5.07;;;10.50;87.40;;;;;;4985451;28;20399;-75
2022/01/03 00:18:41;;;;;;;23.73;5.03;;;10.50;87.50;;;;;;4983829;28;20034;-77
2022/01/03 00:21:11;;;;;;;32.30;6.47;;;10.50;87.40;;;;;;4986631;28;20034;-77
2022/01/03 00:23:39;;;;;;;34.97;6.88;;;10.40;87.60;;;;;;4984301;28;20038;-75
2022/01/03 00:26:07;;;;;;;29.00;6.47;;;10.40;87.80;;;;;;4983562;28;20133;-77
2022/01/03 00:28:39;;;;;;;27.30;6.53;;;10.40;87.70;;;;;;4988564;28;20105;-76
2022/01/03 00:31:05;;;;;;;30.30;6.22;;;10.40;87.90;;;;;;4986850;28;20108;-76
2022/01/03 00:33:32;;;;;;;27.75;7.13;;;10.30;87.90;;;;;;4986724;28;20042;-75
2022/01/03 00:36:06;;;;;;;33.67;6.78;;;10.40;88.00;;;;;;4997230;28;20506;-75
2022/01/03 00:38:34;;;;;;;23.35;4.40;;;10.40;87.90;;;;;;4990351;28;20042;-75
2022/01/03 00:41:01;;;;;;;28.10;5.60;;;10.40;88.00;;;;;;4984307;28;20603;-76
2022/01/03 00:43:28;;;;;;;25.58;5.00;;;10.40;88.00;;;;;;4991245;28;20549;-76
2022/01/03 00:45:55;;;;;;;29.08;5.63;;;10.40;88.00;;;;;;4990667;28;20573;-79
2022/01/03 00:48:21;;;;;;;25.73;5.13;;;10.30;88.00;;;;;;4988979;28;20505;-76
2022/01/03 00:50:47;;;;;;;34.40;5.47;;;10.40;88.10;;;;;;4990040;28;20054;-75
2022/01/03 00:53:14;;;;;;;29.55;5.25;;;10.40;88.20;;;;;;4971749;28;20479;-77
2022/01/03 00:56:12;;;;;;;24.17;5.03;;;10.40;88.30;;;;;;4989554;28;20061;-76
2022/01/03 00:58:52;;;;;;;29.92;5.63;;;10.40;88.30;;;;;;4988565;28;20084;-76
2022/01/03 01:01:19;;;;;;;34.42;6.53;;;10.30;88.50;;;;;;4985519;28;20478;-75
2022/01/03 01:03:48;;;;;;;22.80;5.40;;;10.30;88.40;;;;;;4997495;28;20046;-76
2022/01/03 01:06:15;;;;;;;28.52;5.45;;;10.30;88.60;;;;;;4991119;28;20146;-76
2022/01/03 01:08:43;;;;;;;32.03;6.15;;;10.30;88.50;;;;;;4986892;28;20100;-77
2022/01/03 01:11:09;;;;;;;29.35;5.78;;;10.40;88.40;;;;;;4972561;28;20084;-76
2022/01/03 01:13:36;;;;;;;26.88;6.13;;;10.40;88.40;;;;;;4989088;28;20119;-76
2022/01/03 01:16:07;;;;;;;26.80;5.95;;;10.40;88.30;;;;;;4971132;28;20035;-77
2022/01/03 01:18:36;;;;;;;28.48;6.10;;;10.40;88.50;;;;;;4969283;28;20564;-75
2022/01/03 01:21:06;;;;;;;31.75;6.93;;;10.40;88.60;;;;;;4995601;28;20042;-74
2022/01/03 01:23:33;;;;;;;28.20;6.10;;;10.40;88.50;;;;;;4986618;28;20042;-77
2022/01/03 01:28:44;;;;;;;26.67;5.30;;;10.40;88.30;;;;;;4988347;28;20045;-76
2022/01/03 01:31:15;;;;;;;35.60;6.03;;;10.40;88.50;;;;;;4987527;28;20409;-77
2022/01/03 01:33:42;;;;;;;34.08;8.43;;;10.40;88.40;;;;;;4990583;28;20042;-76
2022/01/03 01:36:09;;;;;;;32.30;7.07;;;10.30;88.40;;;;;;4991769;28;20036;-76
2022/01/03 01:38:38;;;;;;;36.78;5.97;;;10.30;88.30;;;;;;4990548;28;20045;-77
2022/01/03 01:41:06;;;;;;;25.90;4.88;;;10.30;88.20;;;;;;4988562;28;20061;-76
2022/01/03 01:43:39;;;;;;;27.80;6.18;;;10.30;88.00;;;;;;4991155;28;20030;-76
2022/01/03 01:46:11;;;;;;;33.28;6.18;;;10.40;87.90;;;;;;4968226;28;20071;-75
2022/01/03 01:48:39;;;;;;;26.88;5.97;;;10.30;87.90;;;;;;4988264;28;20034;-75
2022/01/03 01:51:07;;;;;;;21.90;5.07;;;10.30;87.90;;;;;;4965432;28;20046;-75
2022/01/03 01:53:47;;;;;;;33.03;5.60;;;10.30;88.00;;;;;;4984986;28;20038;-75
2022/01/03 01:56:22;;;;;;;25.55;5.35;;;10.30;88.20;;;;;;4984048;28;20030;-76
2022/01/03 01:59:32;;;;;;;31.02;5.30;;;10.40;88.00;;;;;;4992873;28;20057;-74
2022/01/03 02:02:05;;;;;;;29.98;6.38;;;10.30;88.00;;;;;;4888769;29;20883;-75
2022/01/03 02:04:45;;;;;;;27.02;5.93;;;10.30;88.00;;;;;;4903075;29;20032;-76
2022/01/03 02:07:20;;;;;;;27.40;4.85;;;10.40;87.90;;;;;;4953337;28;20065;-77
2022/01/03 02:10:10;;;;;;;34.88;5.75;;;10.30;87.90;;;;;;4986093;28;20038;-76
2022/01/03 02:12:39;;;;;;;29.33;5.70;;;10.30;88.00;;;;;;4980204;28;20047;-77
2022/01/03 02:15:10;;;;;;;30.63;5.18;;;10.30;87.90;;;;;;4989145;28;20038;-75
2022/01/03 02:17:36;;;;;;;29.63;4.80;;;10.20;88.20;;;;;;4983516;28;20030;-76
2022/01/03 02:20:07;;;;;;;30.58;5.10;;;10.20;88.20;;;;;;4984868;28;20389;-77
2022/01/03 02:22:33;;;;;;;29.27;5.22;;;10.20;88.20;;;;;;4988083;28;20517;-76
2022/01/03 02:24:58;;;;;;;33.33;5.78;;;10.20;88.10;;;;;;4977662;28;20113;-77
2022/01/03 02:27:24;;;;;;;30.27;6.18;;;10.20;87.90;;;;;;4985037;28;20066;-75
2022/01/03 02:29:50;;;;;;;31.88;6.40;;;10.20;88.10;;;;;;4987973;28;20046;-76
2022/01/03 02:32:15;;;;;;;32.45;5.20;;;10.10;88.10;;;;;;4991714;28;20050;-76
2022/01/03 02:34:42;;;;;;;29.08;4.70;;;10.10;88.40;;;;;;4981001;28;20039;-75
2022/01/03 02:37:08;;;;;;;34.42;5.97;;;10.10;88.40;;;;;;4984401;28;20496;-75
2022/01/03 02:39:34;;;;;;;25.95;4.85;;;10.10;88.30;;;;;;4992716;28;20090;-75
2022/01/03 02:41:59;;;;;;;27.17;4.85;;;10.10;88.40;;;;;;4989682;28;20050;-76
2022/01/03 02:44:25;;;;;;;32.85;5.68;;;10.10;88.50;;;;;;4984451;28;20049;-76
2022/01/03 02:46:51;;;;;;;32.03;5.35;;;10.10;88.60;;;;;;4963027;28;20410;-75
2022/01/03 02:49:17;;;;;;;36.20;5.50;;;10.00;88.70;;;;;;4985001;28;20533;-76
2022/01/03 02:51:44;;;;;;;31.45;5.50;;;10.00;88.60;;;;;;4985268;28;20061;-77
2022/01/03 02:54:11;;;;;;;24.88;4.53;;;9.90;88.60;;;;;;4987367;28;20038;-75
2022/01/03 02:56:36;;;;;;;26.90;5.18;;;9.90;88.70;;;;;;4987066;28;20118;-75
2022/01/03 02:59:10;;;;;;;27.45;5.15;;;9.90;88.80;;;;;;4969468;28;20050;-75
2022/01/03 03:01:35;;;;;;;34.45;6.03;;;9.90;88.70;;;;;;4986197;28;20393;-76
2022/01/03 03:04:01;;;;;;;33.97;5.70;;;10.00;88.70;;;;;;4991854;28;20039;-76
2022/01/03 03:06:30;;;;;;;27.45;4.93;;;9.90;88.70;;;;;;4986767;28;20440;-75
2022/01/03 03:08:55;;;;;;;31.02;4.72;;;9.90;88.80;;;;;;4990160;28;20042;-78
2022/01/03 03:11:21;;;;;;;32.13;5.25;;;9.90;89.00;;;;;;4976760;28;20057;-76
2022/01/03 03:13:46;;;;;;;32.80;6.25;;;9.90;89.10;;;;;;4990001;28;20035;-74
2022/01/03 03:16:12;;;;;;;31.35;6.47;;;9.90;89.10;;;;;;4989287;28;20061;-74
2022/01/03 03:18:42;;;;;;;28.45;5.57;;;9.80;89.20;;;;;;4984242;28;20049;-75
2022/01/03 03:21:08;;;;;;;36.15;6.50;;;9.80;89.30;;;;;;4990777;28;20049;-75
2022/01/03 03:23:33;;;;;;;28.27;5.68;;;9.90;89.40;;;;;;4969502;28;20058;-75
2022/01/03 03:25:59;;;;;;;27.98;5.78;;;10.00;89.20;;;;;;4969049;28;20513;-74
2022/01/03 03:28:25;;;;;;;32.80;6.57;;;10.00;89.10;;;;;;4966894;28;20398;-76
2022/01/03 03:30:52;;;;;;;41.53;6.68;;;10.10;89.00;;;;;;4985951;28;20053;-75
2022/01/03 03:33:22;;;;;;;35.85;6.25;;;10.10;88.80;;;;;;4986861;28;20042;-75
2022/01/03 03:35:52;;;;;;;28.60;5.15;;;10.20;88.60;;;;;;4992737;28;20046;-75
2022/01/03 03:38:19;;;;;;;36.50;6.43;;;10.20;88.40;;;;;;4969998;28;20045;-75
2022/01/03 03:40:47;;;;;;;28.88;5.97;;;10.20;88.20;;;;;;4986009;28;20038;-76
2022/01/03 03:43:13;;;;;;;31.38;5.78;;;10.20;88.30;;;;;;4975947;28;20034;-74
2022/01/03 03:45:39;;;;;;;30.33;5.63;;;10.20;88.20;;;;;;4988374;28;20125;-75
2022/01/03 03:48:05;;;;;;;28.63;5.85;;;10.30;88.10;;;;;;4988069;28;20040;-75
2022/01/03 03:50:31;;;;;;;25.20;5.55;;;10.30;88.10;;;;;;4995854;28;20053;-76
2022/01/03 03:52:57;;;;;;;34.58;5.57;;;10.40;87.90;;;;;;4995120;28;20042;-76
2022/01/03 03:55:22;;;;;;;31.40;5.13;;;10.40;87.90;;;;;;4989011;28;20034;-76
2022/01/03 03:57:48;;;;;;;40.03;6.68;;;10.40;87.90;;;;;;4988763;28;20077;-76
2022/01/03 04:00:16;;;;;;;32.58;5.53;;;10.50;87.80;;;;;;4993679;28;20038;-75
2022/01/03 04:02:42;;;;;;;21.10;4.90;;;10.50;87.60;;;;;;4986526;28;20100;-76
2022/01/03 04:05:08;;;;;;;29.98;6.15;;;10.50;87.70;;;;;;4988806;28;20030;-76
2022/01/03 04:07:35;;;;;;;30.30;5.90;;;10.50;87.50;;;;;;4989006;28;20037;-75
2022/01/03 04:10:05;;;;;;;25.67;5.85;;;10.50;87.30;;;;;;4989249;28;20078;-76
2022/01/03 04:12:31;;;;;;;30.33;6.65;;;10.50;87.20;;;;;;4984703;28;20067;-74
2022/01/03 04:14:56;;;;;;;27.77;5.35;;;10.60;87.10;;;;;;4971153;28;20482;-74
2022/01/03 04:17:22;;;;;;;20.75;4.45;;;10.50;87.00;;;;;;4987614;28;20114;-75
2022/01/03 04:19:49;;;;;;;22.67;4.13;;;10.50;86.80;;;;;;4988226;28;20453;-75
2022/01/03 04:22:14;;;;;;;22.30;5.22;;;10.50;86.70;;;;;;4992034;28;20038;-75
2022/01/03 04:24:40;;;;;;;23.17;4.47;;;10.40;86.80;;;;;;4988422;28;20101;-76
2022/01/03 04:27:06;;;;;;;27.80;5.72;;;10.40;86.80;;;;;;4987953;28;20133;-76
2022/01/03 04:29:32;;;;;;;23.58;4.82;;;10.40;86.50;;;;;;4990120;28;20042;-74
2022/01/03 04:31:58;;;;;;;28.00;4.70;;;10.40;86.40;;;;;;4968897;28;20051;-77
2022/01/03 04:34:23;;;;;;;29.38;5.30;;;10.30;86.40;;;;;;4987705;28;20061;-75
2022/01/03 04:36:49;;;;;;;20.58;4.07;;;10.30;86.50;;;;;;4989113;28;20038;-75
2022/01/03 04:39:15;;;;;;;23.88;4.75;;;10.30;86.50;;;;;;4990914;28;20050;-76
2022/01/03 04:41:40;;;;;;;20.17;4.93;;;10.30;86.60;;;;;;4990465;28;20081;-75
2022/01/03 04:44:06;;;;;;;22.13;5.45;;;10.20;86.70;;;;;;4970092;28;20126;-77
2022/01/03 04:46:36;;;;;;;22.52;5.15;;;10.20;86.60;;;;;;4982209;28;20077;-76
2022/01/03 04:49:03;;;;;;;20.52;3.97;;;10.20;86.50;;;;;;4992033;28;20049;-76
2022/01/03 04:51:29;;;;;;;17.70;3.80;;;10.20;86.40;;;;;;4988665;28;20066;-77
2022/01/03 04:53:54;;;;;;;17.75;3.35;;;10.10;86.50;;;;;;4994916;28;20112;-76
2022/01/03 04:56:20;;;;;;;20.75;5.05;;;10.10;86.60;;;;;;4993674;28;20057;-75
2022/01/03 04:58:46;;;;;;;25.08;4.30;;;10.10;86.70;;;;;;4989798;28;20118;-77
2022/01/03 05:01:12;;;;;;;25.27;4.28;;;10.10;86.70;;;;;;4990840;28;20046;-77
2022/01/03 05:03:37;;;;;;;18.80;3.40;;;10.10;86.90;;;;;;4969811;28;20145;-76
2022/01/03 05:06:03;;;;;;;15.68;4.25;;;10.10;86.90;;;;;;4992797;28;20605;-77
2022/01/03 05:08:30;;;;;;;24.30;3.88;;;10.20;87.00;;;;;;4975821;28;20437;-76
2022/01/03 05:11:00;;;;;;;18.30;3.55;;;10.30;86.70;;;;;;4997953;28;20038;-76
2022/01/03 05:13:27;;;;;;;22.25;4.65;;;10.30;86.70;;;;;;4975684;28;20042;-76
2022/01/03 05:15:53;;;;;;;18.65;3.10;;;10.40;86.70;;;;;;4971773;28;20034;-76
2022/01/03 05:18:18;;;;;;;18.02;3.92;;;10.40;86.70;;;;;;4969603;28;20046;-76
2022/01/03 05:20:44;;;;;;;14.98;3.53;;;10.40;86.70;;;;;;4969254;28;20499;-75
2022/01/03 05:23:10;;;;;;;20.85;4.43;;;10.50;86.70;;;;;;4983579;28;20121;-75
2022/01/03 05:25:35;;;;;;;19.08;3.33;;;10.40;86.80;;;;;;4990530;28;20394;-77
2022/01/03 05:28:01;;;;;;;17.63;3.92;;;10.50;87.00;;;;;;4970786;28;20129;-76
2022/01/03 05:30:27;;;;;;;22.77;4.57;;;10.50;87.00;;;;;;4986279;28;20082;-75
2022/01/03 05:32:53;;;;;;;21.05;4.60;;;10.50;87.00;;;;;;4972874;28;20119;-75
2022/01/03 05:35:18;;;;;;;22.80;3.88;;;10.50;87.00;;;;;;4982048;28;20495;-77
2022/01/03 05:37:44;;;;;;;24.48;4.53;;;10.60;86.90;;;;;;4984298;28;20468;-76
2022/01/03 05:40:10;;;;;;;21.98;3.70;;;10.60;87.00;;;;;;4986664;28;20038;-76
2022/01/03 05:42:35;;;;;;;17.27;3.83;;;10.60;86.90;;;;;;4985413;28;20659;-75
2022/01/03 05:45:04;;;;;;;25.15;4.85;;;10.60;86.70;;;;;;4992522;28;20050;-76
2022/01/03 05:47:30;;;;;;;23.58;5.00;;;10.60;86.70;;;;;;4991631;28;20057;-75
2022/01/03 05:49:56;;;;;;;19.40;3.92;;;10.70;86.50;;;;;;4986832;28;20100;-75
2022/01/03 05:52:22;;;;;;;24.38;5.10;;;10.70;86.30;;;;;;4991072;28;20453;-76
2022/01/03 05:54:48;;;;;;;24.42;4.72;;;10.70;86.20;;;;;;4990739;28;20042;-77
2022/01/03 05:57:14;;;;;;;24.58;4.13;;;10.80;86.00;;;;;;4986884;28;20034;-75
2022/01/03 05:59:39;;;;;;;24.42;4.82;;;10.70;85.80;;;;;;4989093;28;20038;-74
2022/01/03 06:02:05;;;;;;;25.65;5.28;;;10.70;85.90;;;;;;4992395;28;20049;-76
2022/01/03 06:04:53;;;;;;;25.38;5.30;;;10.60;85.90;;;;;;4986415;28;20038;-75
2022/01/03 06:07:20;;;;;;;23.98;4.28;;;10.60;86.00;;;;;;4986522;28;20044;-75
2022/01/03 06:09:46;;;;;;;22.17;4.47;;;10.60;86.00;;;;;;4998561;28;20452;-74
2022/01/03 06:12:12;;;;;;;25.40;6.15;;;10.50;86.00;;;;;;4972183;28;20096;-74
2022/01/03 06:14:38;;;;;;;25.67;4.85;;;10.40;86.20;;;;;;4989692;28;20051;-75
2022/01/03 06:17:05;;;;;;;22.40;4.68;;;10.40;86.20;;;;;;4979703;28;20107;-76
2022/01/03 06:19:32;;;;;;;19.30;4.50;;;10.40;86.30;;;;;;4986269;28;20045;-76
2022/01/03 06:21:58;;;;;;;24.58;4.63;;;10.40;86.20;;;;;;4990178;28;20058;-76
2022/01/03 06:24:24;;;;;;;26.67;4.95;;;10.30;86.40;;;;;;4985387;28;20314;-76
2022/01/03 06:26:51;;;;;;;23.20;6.03;;;10.30;86.60;;;;;;4991082;28;20046;-76
2022/01/03 06:29:19;;;;;;;23.85;4.32;;;10.30;86.50;;;;;;4992305;28;20557;-74
2022/01/03 06:31:45;;;;;;;21.45;4.40;;;10.40;86.10;;;;;;4991682;28;20130;-75
2022/01/03 06:34:11;;;;;;;28.67;5.05;;;10.30;86.40;;;;;;4986541;28;20084;-75
2022/01/03 06:36:37;;;;;;;25.80;5.15;;;10.30;86.70;;;;;;4983765;28;20038;-75
2022/01/03 06:39:04;;;;;;;22.20;4.68;;;10.20;86.80;;;;;;4968084;28;20049;-77
2022/01/03 06:41:30;;;;;;;28.95;6.10;;;10.20;86.70;;;;;;4988008;28;20121;-76
2022/01/03 06:43:56;;;;;;;22.05;4.70;;;10.20;86.90;;;;;;4985158;28;20121;-74
2022/01/03 06:46:22;;;;;;;21.48;4.85;;;10.20;86.70;;;;;;4986594;28;20042;-76
2022/01/03 06:48:49;;;;;;;20.83;4.03;;;10.20;86.90;;;;;;4965706;28;20042;-76
2022/01/03 06:51:15;;;;;;;23.83;4.63;;;10.10;87.10;;;;;;4978309;28;20165;-74
2022/01/03 06:53:41;;;;;;;21.58;4.68;;;10.10;87.20;;;;;;4989708;28;20038;-75
2022/01/03 06:56:08;;;;;;;27.05;4.82;;;10.10;87.30;;;;;;4986815;28;20038;-76
2022/01/03 06:58:34;;;;;;;21.45;4.55;;;10.10;87.50;;;;;;4983485;28;20035;-77
2022/01/03 07:01:00;;;;;;;22.80;4.80;;;10.10;87.50;;;;;;4987088;28;20168;-75
2022/01/03 07:03:25;;;;;;;22.17;4.35;;;10.10;87.50;;;;;;4993812;28;20062;-75
2022/01/03 07:05:52;;;;;;;25.10;4.68;;;10.10;87.60;;;;;;4989721;28;20084;-76
2022/01/03 07:08:20;;;;;;;21.45;4.43;;;10.10;87.50;;;;;;4985766;28;20441;-77
2022/01/03 07:10:46;;;;;;;26.83;4.78;;;10.10;87.60;;;;;;4984213;28;20592;-75
2022/01/03 07:13:11;;;;;;;31.40;6.25;;;10.10;87.60;;;;;;4966947;28;20035;-76
2022/01/03 07:21:16;;;;;;;23.02;4.57;;;10.10;87.60;;;;;;4971974;28;20049;-76
2022/01/03 07:23:42;;;;;;;24.83;4.72;;;10.20;87.70;;;;;;4987554;28;20035;-78
2022/01/03 07:26:09;;;;;;;25.45;5.43;;;10.20;87.70;;;;;;4989602;28;20039;-77
2022/01/03 07:28:34;;;;;;;22.17;4.22;;;10.20;87.60;;;;;;4968921;28;20034;-77
2022/01/03 07:31:01;;;;;;;29.08;4.97;;;10.20;87.70;;;;;;4987340;28;20540;-75
2022/01/03 07:33:26;;;;;;;22.40;5.03;;;10.20;87.70;;;;;;4972446;28;20026;-76
2022/01/03 07:35:52;;;;;;;26.00;5.03;;;10.20;87.80;;;;;;4990128;28;20486;-75
2022/01/03 07:38:18;;;;;;;21.00;4.28;;;10.30;87.80;;;;;;4987147;28;20034;-75
2022/01/03 07:40:44;;;;;;;26.20;5.10;;;10.30;87.70;;;;;;4987704;28;20037;-75
2022/01/03 07:43:10;;;;;;;25.90;4.95;;;10.30;87.70;;;;;;4987690;28;20444;-76
2022/01/03 07:45:35;;;;;;;30.45;6.05;;;10.30;87.70;;;;;;4988768;28;20044;-76
2022/01/03 07:48:01;;;;;;;28.45;4.80;;;10.30;87.80;;;;;;4988563;28;20045;-77
2022/01/03 07:50:27;;;;;;;26.35;4.82;;;10.30;87.70;;;;;;4988358;28;20756;-74
2022/01/03 07:52:53;;;;;;;25.85;4.88;;;10.30;87.70;;;;;;4969932;28;20116;-74
2022/01/03 07:55:19;;;;;;;30.38;5.25;;;10.30;87.60;;;;;;4968568;28;20564;-74
2022/01/03 07:57:45;;;;;;;26.77;5.03;;;10.30;87.70;;;;;;4987221;28;20050;-74
2022/01/03 08:00:13;;;;;;;35.13;5.50;;;10.30;87.60;;;;;;4989455;28;20418;-73
2022/01/03 08:02:41;;;;;;;28.02;5.57;;;10.30;87.70;;;;;;4987348;28;20050;-73
2022/01/03 08:05:08;;;;;;;25.48;5.72;;;10.30;87.60;;;;;;4986994;28;20038;-73
2022/01/03 08:07:35;;;;;;;30.58;5.28;;;10.40;87.60;;;;;;4988488;28;20045;-73
2022/01/03 08:10:01;;;;;;;28.95;5.93;;;10.40;87.40;;;;;;4987671;28;20044;-74
2022/01/03 08:12:26;;;;;;;33.72;9.18;;;10.50;87.20;;;;;;4988491;28;20486;-74
2022/01/03 08:14:52;;;;;;;25.98;5.13;;;10.50;87.00;;;;;;4971027;28;20042;-72
2022/01/03 08:17:17;;;;;;;25.27;5.03;;;10.50;86.90;;;;;;4987257;28;20125;-73
2022/01/03 08:19:43;;;;;;;20.05;4.45;;;10.50;86.80;;;;;;4993849;28;20030;-74
2022/01/03 08:22:09;;;;;;;20.20;4.75;;;10.50;86.80;;;;;;4982221;28;20038;-73
2022/01/03 08:24:34;;;;;;;25.33;4.65;;;10.60;86.50;;;;;;4992354;28;20788;-72
2022/01/03 08:27:00;;;;;;;21.05;5.05;;;10.60;86.30;;;;;;4973908;28;20359;-74
2022/01/03 08:29:26;;;;;;;20.48;3.78;;;10.50;86.20;;;;;;4993190;28;20038;-74
2022/01/03 08:31:52;;;;;;;28.42;5.05;;;10.50;86.30;;;;;;4987348;28;20047;-74
2022/01/03 08:34:17;;;;;;;27.80;4.82;;;10.60;86.20;;;;;;4988418;28;20126;-73
2022/01/03 08:36:43;;;;;;;19.75;3.97;;;10.60;86.20;;;;;;4991097;28;20080;-74
2022/01/03 08:39:10;;;;;;;20.40;3.95;;;10.50;86.30;;;;;;4981998;28;20565;-72
2022/01/03 08:41:36;;;;;;;23.30;5.13;;;10.50;86.30;;;;;;4988851;28;20050;-73
2022/01/03 08:44:02;;;;;;;16.98;4.60;;;10.60;86.30;;;;;;4985699;28;20517;-74
2022/01/03 08:46:27;;;;;;;18.13;4.45;;;10.60;86.40;;;;;;4965338;28;20118;-74
2022/01/03 08:48:54;;;;;;;21.13;4.13;;;10.60;86.50;;;;;;4984776;28;20108;-73
2022/01/03 08:51:20;;;;;;;16.83;3.90;;;10.60;86.60;;;;;;4984140;28;20042;-73
2022/01/03 08:53:46;;;;;;;21.80;5.28;;;10.60;86.70;;;;;;4985846;28;20113;-72
2022/01/03 08:56:12;;;;;;;19.05;4.22;;;10.60;86.80;;;;;;4984872;28;20042;-73
2022/01/03 08:58:38;;;;;;;23.48;4.57;;;10.60;86.90;;;;;;4989098;28;20053;-72
2022/01/03 09:01:04;;;;;;;19.55;4.93;;;10.60;87.20;;;;;;4970278;28;20045;-74
2022/01/03 09:03:30;;;;;;;20.98;4.65;;;10.60;87.40;;;;;;4986563;28;20046;-72
2022/01/03 09:05:56;;;;;;;28.05;5.22;;;10.60;87.20;;;;;;4986467;28;20054;-73
2022/01/03 09:08:23;;;;;;;28.55;5.72;;;10.60;87.40;;;;;;4987459;28;20050;-73
2022/01/03 09:10:50;;;;;;;21.92;4.90;;;10.60;87.30;;;;;;4983878;28;20038;-72
2022/01/03 09:13:17;;;;;;;22.40;5.78;;;10.60;87.30;;;;;;4983424;28;20498;-73
2022/01/03 09:15:46;;;;;;;21.60;4.65;;;10.70;87.20;;;;;;4988479;28;20034;-73
2022/01/03 09:18:12;;;;;;;24.25;6.18;;;10.70;87.00;;;;;;4985713;28;20105;-73
2022/01/03 09:20:38;;;;;;;23.48;5.80;;;10.70;86.90;;;;;;4969134;28;20371;-73
2022/01/03 09:23:14;;;;;;;20.88;4.60;;;10.70;87.10;;;;;;4991476;28;20568;-72
2022/01/03 09:30:55;;;;;;;24.85;5.53;;;10.70;87.50;;;;;;4989550;28;20509;-73
2022/01/03 09:33:21;;;;;;;24.73;5.30;;;10.70;87.70;;;;;;4993684;28;20485;-73
2022/01/03 09:35:47;;;;;;;26.15;5.38;;;10.70;88.10;;;;;;4987381;28;20565;-74
2022/01/03 09:38:12;;;;;;;26.67;6.10;;;10.70;88.20;;;;;;4985912;28;20054;-73
2022/01/03 09:40:41;;;;;;;26.08;5.05;;;10.70;88.40;;;;;;4987900;28;20053;-73
2022/01/03 09:43:09;;;;;;;25.52;5.72;;;10.60;88.50;;;;;;4983902;28;20050;-73
2022/01/03 09:45:37;;;;;;;27.80;5.22;;;10.70;88.60;;;;;;4982862;28;20595;-72
2022/01/03 09:48:04;;;;;;;25.70;5.13;;;10.70;88.50;;;;;;4984499;28;20426;-73
2022/01/03 09:50:32;;;;;;;29.40;6.05;;;10.70;88.50;;;;;;4985559;28;20112;-73
2022/01/03 09:53:00;;;;;;;28.33;5.75;;;10.70;88.40;;;;;;4982307;28;20054;-73
2022/01/03 09:55:26;;;;;;;28.38;5.95;;;10.70;88.20;;;;;;4985308;28;20038;-73
2022/01/03 09:57:52;;;;;;;26.88;6.45;;;10.80;88.10;;;;;;4985211;28;20031;-73
2022/01/03 10:00:23;;;;;;;30.95;7.40;;;10.80;88.10;;;;;;4985421;28;20027;-73
2022/01/03 10:02:51;;;;;;;28.55;7.47;;;10.80;88.10;;;;;;4972431;28;20460;-73
2022/01/03 10:05:17;;;;;;;29.58;6.88;;;10.80;88.30;;;;;;4983273;28;20569;-74
2022/01/03 10:07:43;;;;;;;30.02;5.43;;;10.80;88.40;;;;;;4984731;28;21772;-75
2022/01/03 10:10:10;;;;;;;32.20;6.43;;;10.90;88.50;;;;;;4984048;28;20050;-74
2022/01/03 10:12:36;;;;;;;25.25;5.60;;;10.90;88.60;;;;;;4984788;28;20065;-73
2022/01/03 10:15:04;;;;;;;30.63;5.57;;;10.90;88.60;;;;;;4984988;28;20050;-74
2022/01/03 10:17:37;;;;;;;27.63;5.85;;;10.90;88.60;;;;;;4981912;28;20040;-74
2022/01/03 10:20:05;;;;;;;24.08;5.10;;;10.90;88.60;;;;;;4984108;28;20445;-73
2022/01/03 10:22:33;;;;;;;22.02;4.82;;;11.00;88.60;;;;;;4986324;28;20084;-74
2022/01/03 10:25:02;;;;;;;28.77;5.80;;;11.00;88.30;;;;;;4985071;28;20030;-73
2022/01/03 10:27:55;;;;;;;26.77;5.97;;;11.00;88.10;;;;;;4982714;28;20069;-73
2022/01/03 10:30:41;;;;;;;26.58;5.68;;;11.00;88.10;;;;;;4983719;28;20507;-73
2022/01/03 10:33:10;;;;;;;26.45;5.45;;;11.10;88.00;;;;;;4985658;28;20120;-74
2022/01/03 10:35:42;;;;;;;20.30;4.85;;;11.10;88.00;;;;;;4986016;28;20478;-73
2022/01/03 10:38:09;;;;;;;26.40;5.20;;;11.10;88.10;;;;;;4983465;28;20858;-74
2022/01/03 10:40:36;;;;;;;29.63;5.00;;;11.10;88.10;;;;;;4983675;28;20038;-74
2022/01/03 10:43:17;;;;;;;27.15;5.57;;;11.10;88.50;;;;;;4984805;28;20034;-74
2022/01/03 10:45:43;;;;;;;25.52;6.00;;;11.10;88.50;;;;;;4983882;28;20074;-75
2022/01/03 10:48:30;;;;;;;26.10;5.90;;;11.10;88.60;;;;;;4984543;28;20030;-73
2022/01/03 10:50:57;;;;;;;26.42;5.47;;;11.10;88.70;;;;;;4983710;28;20130;-73
2022/01/03 10:53:39;;;;;;;29.00;6.32;;;11.10;88.60;;;;;;4983106;28;20113;-73
2022/01/03 10:56:32;;;;;;;18.20;4.03;;;11.10;88.80;;;;;;4982542;28;20088;-76
2022/01/03 10:59:18;;;;;;;21.67;4.20;;;11.00;88.30;;;;;;4986190;28;20058;-76
2022/01/03 11:02:03;;;;;;;14.30;3.42;;;10.90;88.20;;;;;;4983039;28;20049;-75
2022/01/03 11:05:12;;;;;;;20.98;4.35;;;10.80;87.90;;;;;;4986516;28;20038;-74
2022/01/03 11:13:06;;;;;;;15.70;3.65;;;10.60;88.70;;;;;;4982298;28;20052;-74
2022/01/03 11:15:36;;;;;;;19.23;4.32;;;10.60;88.80;;;;;;4994053;28;20378;-73
2022/01/03 11:18:18;;;;;;;13.52;3.17;;;10.50;88.70;;;;;;4988283;28;20722;-75
2022/01/03 11:21:11;;;;;;;10.98;3.35;;;10.50;88.90;;;;;;4987422;28;20129;-76
2022/01/03 11:23:43;;;;;;;18.35;4.18;;;10.50;88.90;;;;;;4977423;28;20038;-74
2022/01/03 11:26:14;;;;;;;13.65;3.17;;;10.40;89.40;;;;;;4980871;28;20038;-75
2022/01/03 11:28:43;;;;;;;13.93;2.97;;;10.30;89.30;;;;;;4972910;28;20046;-75
2022/01/03 11:31:13;;;;;;;16.13;3.50;;;10.20;89.40;;;;;;4980577;28;20160;-72
2022/01/03 11:33:40;;;;;;;16.33;3.30;;;10.30;89.60;;;;;;4986666;28;20140;-75
2022/01/03 11:36:07;;;;;;;12.95;2.78;;;10.30;89.50;;;;;;4983825;28;20042;-74
2022/01/03 11:38:36;;;;;;;14.40;3.65;;;10.30;89.60;;;;;;4976371;28;20633;-74
2022/01/03 11:41:04;;;;;;;9.88;3.17;;;10.20;89.80;;;;;;4979903;28;20041;-74
2022/01/03 11:43:33;;;;;;;11.00;2.80;;;10.20;89.80;;;;;;4978827;28;20375;-75
2022/01/03 11:45:59;;;;;;;11.98;3.72;;;10.30;89.80;;;;;;4979551;28;20042;-75
2022/01/03 11:48:31;;;;;;;11.38;3.22;;;10.30;89.70;;;;;;4980535;28;20041;-72
2022/01/03 11:51:02;;;;;;;12.05;3.45;;;10.30;89.90;;;;;;4978682;28;20046;-74
2022/01/03 11:53:33;;;;;;;10.40;2.97;;;10.30;89.90;;;;;;4980404;28;20498;-73
2022/01/03 11:56:04;;;;;;;12.68;3.53;;;10.40;90.00;;;;;;4979414;28;20475;-74
2022/01/03 11:58:55;;;;;;;10.15;3.15;;;10.30;90.00;;;;;;4981069;28;20042;-73
2022/01/03 12:04:12;;;;;;;12.10;3.22;;;10.40;89.90;;;;;;4980860;28;20041;-74
2022/01/03 12:06:38;;;;;;;13.10;2.78;;;10.30;90.00;;;;;;4982612;28;20374;-73
2022/01/03 12:09:28;;;;;;;13.50;3.45;;;10.40;90.10;;;;;;4984469;28;20034;-73
2022/01/03 12:11:54;;;;;;;9.55;2.90;;;10.30;90.10;;;;;;4981935;28;20133;-73
2022/01/03 12:14:22;;;;;;;12.50;3.53;;;10.30;90.20;;;;;;4984667;28;20125;-73
2022/01/03 12:17:03;;;;;;;10.32;2.75;;;10.30;90.10;;;;;;4963928;28;20157;-74
2022/01/03 12:19:35;;;;;;;13.05;2.55;;;10.30;90.00;;;;;;4983352;28;20034;-73
2022/01/03 12:22:21;;;;;;;11.02;3.10;;;10.30;90.00;;;;;;4980553;28;20049;-73
2022/01/03 12:24:49;;;;;;;10.95;2.65;;;10.30;90.10;;;;;;4980895;28;20663;-73
2022/01/03 12:27:14;;;;;;;10.75;2.83;;;10.30;89.90;;;;;;4957526;28;20049;-73
2022/01/03 12:29:56;;;;;;;7.78;2.47;;;10.20;89.80;;;;;;4980846;28;20042;-75
2022/01/03 12:32:42;;;;;;;9.10;3.40;;;10.20;89.90;;;;;;4982964;28;20046;-74
2022/01/03 12:35:12;;;;;;;9.82;3.20;;;10.20;90.00;;;;;;4982432;28;20049;-74
2022/01/03 12:37:59;;;;;;;11.70;3.30;;;10.20;89.70;;;;;;4995859;28;20038;-74
2022/01/03 12:40:32;;;;;;;13.32;3.53;;;10.20;89.90;;;;;;4966058;28;20046;-74
2022/01/03 12:43:01;;;;;;;9.30;3.60;;;10.20;90.10;;;;;;4968550;28;20050;-74
2022/01/03 12:45:29;;;;;;;9.15;2.58;;;10.20;90.20;;;;;;4986368;28;20034;-74
2022/01/03 12:48:19;;;;;;;11.85;3.22;;;10.20;90.20;;;;;;4994029;28;20037;-74
2022/01/03 12:50:51;;;;;;;8.85;3.20;;;10.30;90.20;;;;;;4982349;28;20038;-74
2022/01/03 12:53:23;;;;;;;10.82;3.20;;;10.20;90.10;;;;;;4986036;28;20188;-74
2022/01/03 12:55:53;;;;;;;9.80;2.92;;;10.20;90.20;;;;;;4990687;28;20041;-74
2022/01/03 12:58:20;;;;;;;10.57;2.70;;;10.20;90.10;;;;;;4989207;28;20469;-73
2022/01/03 13:00:46;;;;;;;12.05;3.78;;;10.20;90.10;;;;;;4969318;28;20046;-75
2022/01/03 13:03:25;;;;;;;8.60;2.85;;;10.20;90.00;;;;;;4991746;28;20046;-75
2022/01/03 13:06:14;;;;;;;11.43;3.22;;;10.20;89.90;;;;;;4984097;28;20054;-74
2022/01/03 13:08:48;;;;;;;9.70;3.38;;;10.10;90.00;;;;;;4960082;28;20698;-74